Terminal Aerodrome Forecast
Issued by NWS Louisville, KY

Home | Current Version | Previous Version | Text Only | Print | Product List | Glossary On
Versions: 1 2 3 4 5 6 7 8 9 10 11 12 13 14 15 16
000
FTUS43 KLMK 241945 AAA
TAFLEX
TAF AMD
KLEX 241945Z 2420/2518 25005KT P6SM BKN025
     FM250200 VRB04KT P6SM FEW040
     FM250900 20010KT P6SM FEW040 WS020/23045KT
     FM251500 21013KT P6SM BKN015=

USA.gov is the U.S. government's official web portal to all federal, state and local government web resources and services.